sensor_id;sensor_type;location;lat;lon;timestamp;P1;durP1;ratioP1;P2;durP2;ratioP2
12519;SDS011;6325;49.540;8.364;2023-04-03T00:00:28;1.33;;;1.23;;
12519;SDS011;6325;49.540;8.364;2023-04-03T00:02:56;1.20;;;1.20;;
12519;SDS011;6325;49.540;8.364;2023-04-03T00:05:23;1.75;;;1.65;;
12519;SDS011;6325;49.540;8.364;2023-04-03T00:07:50;2.05;;;1.70;;
12519;SDS011;6325;49.540;8.364;2023-04-03T00:10:17;1.63;;;1.52;;
12519;SDS011;6325;49.540;8.364;2023-04-03T00:12:45;1.70;;;1.60;;
12519;SDS011;6325;49.540;8.364;2023-04-03T00:15:12;1.88;;;1.77;;
12519;SDS011;6325;49.540;8.364;2023-04-03T00:17:39;1.67;;;1.58;;
12519;SDS011;6325;49.540;8.364;2023-04-03T00:20:06;1.60;;;1.50;;
12519;SDS011;6325;49.540;8.364;2023-04-03T00:22:34;1.65;;;1.55;;
12519;SDS011;6325;49.540;8.364;2023-04-03T00:25:01;1.80;;;1.70;;
12519;SDS011;6325;49.540;8.364;2023-04-03T00:27:28;1.60;;;1.50;;
12519;SDS011;6325;49.540;8.364;2023-04-03T00:29:56;1.85;;;1.45;;
12519;SDS011;6325;49.540;8.364;2023-04-03T00:32:26;1.60;;;1.50;;
12519;SDS011;6325;49.540;8.364;2023-04-03T00:34:53;1.50;;;1.40;;
12519;SDS011;6325;49.540;8.364;2023-04-03T00:37:20;1.50;;;1.40;;
12519;SDS011;6325;49.540;8.364;2023-04-03T00:39:46;1.40;;;1.40;;
12519;SDS011;6325;49.540;8.364;2023-04-03T00:42:13;1.70;;;1.60;;
12519;SDS011;6325;49.540;8.364;2023-04-03T00:47:50;1.25;;;1.25;;
12519;SDS011;6325;49.540;8.364;2023-04-03T00:50:17;1.40;;;1.30;;
12519;SDS011;6325;49.540;8.364;2023-04-03T00:52:44;1.20;;;1.20;;
12519;SDS011;6325;49.540;8.364;2023-04-03T00:55:14;1.50;;;1.40;;
12519;SDS011;6325;49.540;8.364;2023-04-03T00:57:42;1.48;;;1.42;;
12519;SDS011;6325;49.540;8.364;2023-04-03T01:00:10;2.00;;;1.70;;
12519;SDS011;6325;49.540;8.364;2023-04-03T01:02:42;1.70;;;1.60;;
12519;SDS011;6325;49.540;8.364;2023-04-03T01:05:09;1.58;;;1.48;;
12519;SDS011;6325;49.540;8.364;2023-04-03T01:07:37;1.67;;;1.58;;
12519;SDS011;6325;49.540;8.364;2023-04-03T01:10:06;1.70;;;1.60;;
12519;SDS011;6325;49.540;8.364;2023-04-03T01:12:36;1.70;;;1.60;;
12519;SDS011;6325;49.540;8.364;2023-04-03T01:15:05;1.67;;;1.58;;
12519;SDS011;6325;49.540;8.364;2023-04-03T01:17:34;1.38;;;1.38;;
12519;SDS011;6325;49.540;8.364;2023-04-03T01:20:20;1.58;;;1.48;;
12519;SDS011;6325;49.540;8.364;2023-04-03T01:23:06;1.60;;;1.50;;
12519;SDS011;6325;49.540;8.364;2023-04-03T01:25:43;1.70;;;1.60;;
12519;SDS011;6325;49.540;8.364;2023-04-03T01:28:14;1.48;;;1.48;;
12519;SDS011;6325;49.540;8.364;2023-04-03T01:30:44;1.40;;;1.40;;
12519;SDS011;6325;49.540;8.364;2023-04-03T01:33:18;1.80;;;1.70;;
12519;SDS011;6325;49.540;8.364;2023-04-03T01:35:45;1.83;;;1.67;;
12519;SDS011;6325;49.540;8.364;2023-04-03T01:38:12;1.70;;;1.60;;
12519;SDS011;6325;49.540;8.364;2023-04-03T01:40:38;1.63;;;1.63;;
12519;SDS011;6325;49.540;8.364;2023-04-03T01:43:06;1.85;;;1.75;;
12519;SDS011;6325;49.540;8.364;2023-04-03T01:45:33;2.10;;;1.80;;
12519;SDS011;6325;49.540;8.364;2023-04-03T01:48:00;1.90;;;1.80;;
12519;SDS011;6325;49.540;8.364;2023-04-03T01:50:28;2.03;;;1.80;;
12519;SDS011;6325;49.540;8.364;2023-04-03T01:52:55;1.80;;;1.70;;
12519;SDS011;6325;49.540;8.364;2023-04-03T01:55:23;1.90;;;1.80;;
12519;SDS011;6325;49.540;8.364;2023-04-03T01:57:49;1.80;;;1.70;;
12519;SDS011;6325;49.540;8.364;2023-04-03T02:00:16;2.05;;;1.77;;
12519;SDS011;6325;49.540;8.364;2023-04-03T02:02:43;1.88;;;1.77;;
12519;SDS011;6325;49.540;8.364;2023-04-03T02:05:10;2.00;;;1.80;;
12519;SDS011;6325;49.540;8.364;2023-04-03T02:07:38;2.30;;;1.70;;
12519;SDS011;6325;49.540;8.364;2023-04-03T02:10:05;1.90;;;1.80;;
12519;SDS011;6325;49.540;8.364;2023-04-03T02:12:32;2.00;;;1.70;;
12519;SDS011;6325;49.540;8.364;2023-04-03T02:14:59;1.70;;;1.60;;
12519;SDS011;6325;49.540;8.364;2023-04-03T02:17:26;1.88;;;1.77;;
12519;SDS011;6325;49.540;8.364;2023-04-03T02:19:53;1.73;;;1.63;;
12519;SDS011;6325;49.540;8.364;2023-04-03T02:22:20;1.80;;;1.70;;
12519;SDS011;6325;49.540;8.364;2023-04-03T02:24:48;1.70;;;1.60;;
12519;SDS011;6325;49.540;8.364;2023-04-03T02:27:16;1.80;;;1.70;;
12519;SDS011;6325;49.540;8.364;2023-04-03T02:29:43;1.83;;;1.73;;
12519;SDS011;6325;49.540;8.364;2023-04-03T02:32:10;1.80;;;1.70;;
12519;SDS011;6325;49.540;8.364;2023-04-03T02:34:37;1.77;;;1.67;;
12519;SDS011;6325;49.540;8.364;2023-04-03T02:37:04;2.00;;;1.80;;
12519;SDS011;6325;49.540;8.364;2023-04-03T02:39:31;1.70;;;1.60;;
12519;SDS011;6325;49.540;8.364;2023-04-03T02:41:59;1.90;;;1.80;;
12519;SDS011;6325;49.540;8.364;2023-04-03T02:44:26;1.60;;;1.50;;
12519;SDS011;6325;49.540;8.364;2023-04-03T02:46:53;1.70;;;1.60;;
12519;SDS011;6325;49.540;8.364;2023-04-03T02:49:20;1.73;;;1.63;;
12519;SDS011;6325;49.540;8.364;2023-04-03T02:51:47;1.63;;;1.53;;
12519;SDS011;6325;49.540;8.364;2023-04-03T02:54:13;1.95;;;1.85;;
12519;SDS011;6325;49.540;8.364;2023-04-03T02:56:42;1.90;;;1.80;;
12519;SDS011;6325;49.540;8.364;2023-04-03T02:59:10;1.95;;;1.85;;
12519;SDS011;6325;49.540;8.364;2023-04-03T03:01:36;1.70;;;1.60;;
12519;SDS011;6325;49.540;8.364;2023-04-03T03:04:03;1.80;;;1.70;;
12519;SDS011;6325;49.540;8.364;2023-04-03T03:06:30;1.60;;;1.50;;
12519;SDS011;6325;49.540;8.364;2023-04-03T03:08:57;1.60;;;1.50;;
12519;SDS011;6325;49.540;8.364;2023-04-03T03:11:24;1.80;;;1.70;;
12519;SDS011;6325;49.540;8.364;2023-04-03T03:13:51;1.40;;;1.40;;
12519;SDS011;6325;49.540;8.364;2023-04-03T03:16:19;1.57;;;1.47;;
12519;SDS011;6325;49.540;8.364;2023-04-03T03:18:46;1.63;;;1.52;;
12519;SDS011;6325;49.540;8.364;2023-04-03T03:21:13;1.55;;;1.50;;
12519;SDS011;6325;49.540;8.364;2023-04-03T03:23:40;1.60;;;1.50;;
12519;SDS011;6325;49.540;8.364;2023-04-03T03:26:07;1.90;;;1.80;;
12519;SDS011;6325;49.540;8.364;2023-04-03T03:28:36;1.53;;;1.50;;
12519;SDS011;6325;49.540;8.364;2023-04-03T03:31:04;1.90;;;1.80;;
12519;SDS011;6325;49.540;8.364;2023-04-03T03:33:33;1.70;;;1.60;;
12519;SDS011;6325;49.540;8.364;2023-04-03T03:36:00;1.60;;;1.50;;
12519;SDS011;6325;49.540;8.364;2023-04-03T03:38:27;1.80;;;1.70;;
12519;SDS011;6325;49.540;8.364;2023-04-03T03:40:54;1.70;;;1.60;;
12519;SDS011;6325;49.540;8.364;2023-04-03T03:43:21;1.83;;;1.73;;
12519;SDS011;6325;49.540;8.364;2023-04-03T03:45:49;1.75;;;1.65;;
12519;SDS011;6325;49.540;8.364;2023-04-03T03:48:17;1.50;;;1.50;;
12519;SDS011;6325;49.540;8.364;2023-04-03T03:50:48;2.70;;;1.90;;
12519;SDS011;6325;49.540;8.364;2023-04-03T03:53:15;1.75;;;1.65;;
12519;SDS011;6325;49.540;8.364;2023-04-03T03:55:42;1.83;;;1.73;;
12519;SDS011;6325;49.540;8.364;2023-04-03T03:58:08;1.90;;;1.70;;
12519;SDS011;6325;49.540;8.364;2023-04-03T04:00:35;2.35;;;1.90;;
12519;SDS011;6325;49.540;8.364;2023-04-03T04:03:02;1.80;;;1.70;;
12519;SDS011;6325;49.540;8.364;2023-04-03T04:05:29;1.90;;;1.80;;
12519;SDS011;6325;49.540;8.364;2023-04-03T04:07:58;1.80;;;1.70;;
12519;SDS011;6325;49.540;8.364;2023-04-03T04:10:25;1.85;;;1.75;;
12519;SDS011;6325;49.540;8.364;2023-04-03T04:12:52;1.70;;;1.60;;
12519;SDS011;6325;49.540;8.364;2023-04-03T04:15:19;1.70;;;1.60;;
12519;SDS011;6325;49.540;8.364;2023-04-03T04:17:46;1.80;;;1.58;;
12519;SDS011;6325;49.540;8.364;2023-04-03T04:20:14;1.60;;;1.50;;
12519;SDS011;6325;49.540;8.364;2023-04-03T04:22:41;1.92;;;1.60;;
12519;SDS011;6325;49.540;8.364;2023-04-03T04:25:09;1.70;;;1.60;;
12519;SDS011;6325;49.540;8.364;2023-04-03T04:27:36;1.67;;;1.58;;
12519;SDS011;6325;49.540;8.364;2023-04-03T04:30:03;1.70;;;1.60;;
12519;SDS011;6325;49.540;8.364;2023-04-03T04:32:31;1.80;;;1.70;;
12519;SDS011;6325;49.540;8.364;2023-04-03T04:34:59;1.75;;;1.65;;
12519;SDS011;6325;49.540;8.364;2023-04-03T04:37:26;1.70;;;1.60;;
12519;SDS011;6325;49.540;8.364;2023-04-03T04:39:52;2.00;;;1.65;;
12519;SDS011;6325;49.540;8.364;2023-04-03T04:42:21;1.73;;;1.63;;
12519;SDS011;6325;49.540;8.364;2023-04-03T04:44:48;1.60;;;1.50;;
12519;SDS011;6325;49.540;8.364;2023-04-03T04:47:15;1.80;;;1.70;;
12519;SDS011;6325;49.540;8.364;2023-04-03T04:49:42;1.60;;;1.50;;
12519;SDS011;6325;49.540;8.364;2023-04-03T04:52:09;1.80;;;1.70;;
12519;SDS011;6325;49.540;8.364;2023-04-03T04:54:36;1.70;;;1.60;;
12519;SDS011;6325;49.540;8.364;2023-04-03T04:57:02;1.60;;;1.50;;
12519;SDS011;6325;49.540;8.364;2023-04-03T04:59:31;2.35;;;1.90;;
12519;SDS011;6325;49.540;8.364;2023-04-03T05:01:58;2.20;;;2.03;;
12519;SDS011;6325;49.540;8.364;2023-04-03T05:04:25;1.70;;;1.60;;
12519;SDS011;6325;49.540;8.364;2023-04-03T05:06:52;2.10;;;1.90;;
12519;SDS011;6325;49.540;8.364;2023-04-03T05:09:19;2.00;;;1.90;;
12519;SDS011;6325;49.540;8.364;2023-04-03T05:11:46;1.90;;;1.80;;
12519;SDS011;6325;49.540;8.364;2023-04-03T05:14:13;1.80;;;1.70;;
12519;SDS011;6325;49.540;8.364;2023-04-03T05:16:41;2.00;;;1.90;;
12519;SDS011;6325;49.540;8.364;2023-04-03T05:19:08;1.90;;;1.80;;
12519;SDS011;6325;49.540;8.364;2023-04-03T05:21:35;1.88;;;1.77;;
12519;SDS011;6325;49.540;8.364;2023-04-03T05:24:02;1.65;;;1.55;;
12519;SDS011;6325;49.540;8.364;2023-04-03T05:26:29;1.95;;;1.85;;
12519;SDS011;6325;49.540;8.364;2023-04-03T05:28:56;2.13;;;1.92;;
12519;SDS011;6325;49.540;8.364;2023-04-03T05:31:23;2.97;;;2.00;;
12519;SDS011;6325;49.540;8.364;2023-04-03T05:33:51;1.90;;;1.80;;
12519;SDS011;6325;49.540;8.364;2023-04-03T05:36:18;2.10;;;2.00;;
12519;SDS011;6325;49.540;8.364;2023-04-03T05:38:45;1.98;;;1.88;;
12519;SDS011;6325;49.540;8.364;2023-04-03T05:41:12;2.08;;;1.88;;
12519;SDS011;6325;49.540;8.364;2023-04-03T05:43:39;1.70;;;1.60;;
12519;SDS011;6325;49.540;8.364;2023-04-03T05:46:08;2.88;;;1.90;;
12519;SDS011;6325;49.540;8.364;2023-04-03T05:48:36;1.80;;;1.70;;
12519;SDS011;6325;49.540;8.364;2023-04-03T05:51:05;2.10;;;1.90;;
12519;SDS011;6325;49.540;8.364;2023-04-03T05:53:34;2.05;;;1.95;;
12519;SDS011;6325;49.540;8.364;2023-04-03T05:56:02;2.10;;;1.90;;
12519;SDS011;6325;49.540;8.364;2023-04-03T05:58:29;2.20;;;2.00;;
12519;SDS011;6325;49.540;8.364;2023-04-03T06:00:57;2.30;;;2.10;;
12519;SDS011;6325;49.540;8.364;2023-04-03T06:03:23;2.15;;;1.95;;
12519;SDS011;6325;49.540;8.364;2023-04-03T06:05:51;2.42;;;2.22;;
12519;SDS011;6325;49.540;8.364;2023-04-03T06:08:19;2.70;;;2.38;;
12519;SDS011;6325;49.540;8.364;2023-04-03T06:10:46;2.20;;;2.00;;
12519;SDS011;6325;49.540;8.364;2023-04-03T06:13:13;2.58;;;2.30;;
12519;SDS011;6325;49.540;8.364;2023-04-03T06:15:40;2.30;;;2.10;;
12519;SDS011;6325;49.540;8.364;2023-04-03T06:18:07;2.50;;;2.30;;
12519;SDS011;6325;49.540;8.364;2023-04-03T06:20:34;2.15;;;1.95;;
12519;SDS011;6325;49.540;8.364;2023-04-03T06:23:01;2.47;;;2.27;;
12519;SDS011;6325;49.540;8.364;2023-04-03T06:25:29;2.15;;;1.92;;
12519;SDS011;6325;49.540;8.364;2023-04-03T06:27:56;1.92;;;1.75;;
12519;SDS011;6325;49.540;8.364;2023-04-03T06:30:23;2.80;;;1.88;;
12519;SDS011;6325;49.540;8.364;2023-04-03T06:32:50;2.05;;;1.80;;
12519;SDS011;6325;49.540;8.364;2023-04-03T06:35:18;2.67;;;1.92;;
12519;SDS011;6325;49.540;8.364;2023-04-03T06:37:46;2.10;;;1.90;;
12519;SDS011;6325;49.540;8.364;2023-04-03T06:40:14;3.65;;;1.83;;
12519;SDS011;6325;49.540;8.364;2023-04-03T06:42:48;1.88;;;1.70;;
12519;SDS011;6325;49.540;8.364;2023-04-03T06:45:15;2.47;;;1.90;;
12519;SDS011;6325;49.540;8.364;2023-04-03T06:47:42;2.40;;;1.90;;
12519;SDS011;6325;49.540;8.364;2023-04-03T06:50:09;1.75;;;1.65;;
12519;SDS011;6325;49.540;8.364;2023-04-03T06:52:39;2.03;;;1.60;;
12519;SDS011;6325;49.540;8.364;2023-04-03T06:55:07;2.10;;;1.55;;
12519;SDS011;6325;49.540;8.364;2023-04-03T06:57:35;2.10;;;1.77;;
12519;SDS011;6325;49.540;8.364;2023-04-03T07:00:04;2.45;;;1.77;;
12519;SDS011;6325;49.540;8.364;2023-04-03T07:02:32;1.77;;;1.67;;
12519;SDS011;6325;49.540;8.364;2023-04-03T07:04:59;2.30;;;1.80;;
12519;SDS011;6325;49.540;8.364;2023-04-03T07:07:26;2.05;;;1.75;;
12519;SDS011;6325;49.540;8.364;2023-04-03T07:09:53;1.70;;;1.60;;
12519;SDS011;6325;49.540;8.364;2023-04-03T07:12:20;1.80;;;1.70;;
12519;SDS011;6325;49.540;8.364;2023-04-03T07:14:47;1.90;;;1.80;;
12519;SDS011;6325;49.540;8.364;2023-04-03T07:17:15;1.60;;;1.50;;
12519;SDS011;6325;49.540;8.364;2023-04-03T07:19:42;2.30;;;1.70;;
12519;SDS011;6325;49.540;8.364;2023-04-03T07:22:09;1.92;;;1.73;;
12519;SDS011;6325;49.540;8.364;2023-04-03T07:24:37;1.63;;;1.52;;
12519;SDS011;6325;49.540;8.364;2023-04-03T07:27:04;1.77;;;1.67;;
12519;SDS011;6325;49.540;8.364;2023-04-03T07:29:33;2.38;;;1.85;;
12519;SDS011;6325;49.540;8.364;2023-04-03T07:32:00;2.75;;;1.70;;
12519;SDS011;6325;49.540;8.364;2023-04-03T07:34:29;4.03;;;1.70;;
12519;SDS011;6325;49.540;8.364;2023-04-03T07:36:56;2.50;;;1.80;;
12519;SDS011;6325;49.540;8.364;2023-04-03T07:39:22;1.73;;;1.63;;
12519;SDS011;6325;49.540;8.364;2023-04-03T07:41:49;3.25;;;2.00;;
12519;SDS011;6325;49.540;8.364;2023-04-03T07:44:16;2.20;;;1.70;;
12519;SDS011;6325;49.540;8.364;2023-04-03T07:46:43;1.98;;;1.70;;
12519;SDS011;6325;49.540;8.364;2023-04-03T07:49:11;1.95;;;1.80;;
12519;SDS011;6325;49.540;8.364;2023-04-03T07:51:40;1.88;;;1.70;;
12519;SDS011;6325;49.540;8.364;2023-04-03T07:54:07;2.08;;;1.60;;
12519;SDS011;6325;49.540;8.364;2023-04-03T07:56:34;2.60;;;1.70;;
12519;SDS011;6325;49.540;8.364;2023-04-03T07:59:00;2.15;;;1.90;;
12519;SDS011;6325;49.540;8.364;2023-04-03T08:01:27;1.92;;;1.70;;
12519;SDS011;6325;49.540;8.364;2023-04-03T08:03:57;1.63;;;1.52;;
12519;SDS011;6325;49.540;8.364;2023-04-03T08:06:25;2.55;;;1.83;;
12519;SDS011;6325;49.540;8.364;2023-04-03T08:08:53;2.73;;;1.87;;
12519;SDS011;6325;49.540;8.364;2023-04-03T08:11:20;2.53;;;1.70;;
12519;SDS011;6325;49.540;8.364;2023-04-03T08:13:48;1.75;;;1.65;;
12519;SDS011;6325;49.540;8.364;2023-04-03T08:16:16;1.73;;;1.63;;
12519;SDS011;6325;49.540;8.364;2023-04-03T08:18:46;2.60;;;1.63;;
12519;SDS011;6325;49.540;8.364;2023-04-03T08:21:13;2.42;;;1.52;;
12519;SDS011;6325;49.540;8.364;2023-04-03T08:23:40;1.40;;;1.30;;
12519;SDS011;6325;49.540;8.364;2023-04-03T08:26:09;2.00;;;1.33;;
12519;SDS011;6325;49.540;8.364;2023-04-03T08:28:38;1.67;;;1.30;;
12519;SDS011;6325;49.540;8.364;2023-04-03T08:31:06;2.22;;;1.70;;
12519;SDS011;6325;49.540;8.364;2023-04-03T08:33:36;1.27;;;1.17;;
12519;SDS011;6325;49.540;8.364;2023-04-03T08:36:03;1.83;;;1.30;;
12519;SDS011;6325;49.540;8.364;2023-04-03T08:38:33;1.67;;;1.20;;
12519;SDS011;6325;49.540;8.364;2023-04-03T08:41:04;1.55;;;1.23;;
12519;SDS011;6325;49.540;8.364;2023-04-03T08:43:41;1.80;;;1.20;;
12519;SDS011;6325;49.540;8.364;2023-04-03T08:46:20;1.77;;;1.17;;
12519;SDS011;6325;49.540;8.364;2023-04-03T08:48:51;1.50;;;1.00;;
12519;SDS011;6325;49.540;8.364;2023-04-03T08:51:20;1.35;;;1.10;;
12519;SDS011;6325;49.540;8.364;2023-04-03T08:53:50;1.35;;;1.20;;
12519;SDS011;6325;49.540;8.364;2023-04-03T08:56:22;1.80;;;1.08;;
12519;SDS011;6325;49.540;8.364;2023-04-03T08:58:54;1.20;;;1.10;;
12519;SDS011;6325;49.540;8.364;2023-04-03T09:01:24;1.58;;;1.13;;
12519;SDS011;6325;49.540;8.364;2023-04-03T09:03:56;1.30;;;1.20;;
12519;SDS011;6325;49.540;8.364;2023-04-03T09:06:23;0.98;;;0.90;;
12519;SDS011;6325;49.540;8.364;2023-04-03T09:09:01;1.17;;;1.00;;
12519;SDS011;6325;49.540;8.364;2023-04-03T09:11:36;1.17;;;1.07;;
12519;SDS011;6325;49.540;8.364;2023-04-03T09:14:17;1.00;;;0.90;;
12519;SDS011;6325;49.540;8.364;2023-04-03T09:16:52;1.17;;;1.08;;
12519;SDS011;6325;49.540;8.364;2023-04-03T09:19:23;1.93;;;1.23;;
12519;SDS011;6325;49.540;8.364;2023-04-03T09:22:03;1.10;;;0.93;;
12519;SDS011;6325;49.540;8.364;2023-04-03T09:24:39;2.88;;;1.27;;
12519;SDS011;6325;49.540;8.364;2023-04-03T09:27:10;1.67;;;1.05;;
12519;SDS011;6325;49.540;8.364;2023-04-03T09:29:41;1.37;;;1.10;;
12519;SDS011;6325;49.540;8.364;2023-04-03T09:32:18;1.70;;;1.20;;
12519;SDS011;6325;49.540;8.364;2023-04-03T09:34:51;0.90;;;0.90;;
12519;SDS011;6325;49.540;8.364;2023-04-03T09:37:33;1.35;;;0.98;;
12519;SDS011;6325;49.540;8.364;2023-04-03T09:40:02;1.08;;;0.80;;
12519;SDS011;6325;49.540;8.364;2023-04-03T09:42:30;1.52;;;1.00;;
12519;SDS011;6325;49.540;8.364;2023-04-03T09:45:00;1.85;;;0.98;;
12519;SDS011;6325;49.540;8.364;2023-04-03T09:47:29;1.40;;;1.10;;
12519;SDS011;6325;49.540;8.364;2023-04-03T09:50:10;1.58;;;1.00;;
12519;SDS011;6325;49.540;8.364;2023-04-03T09:52:45;1.20;;;1.10;;
12519;SDS011;6325;49.540;8.364;2023-04-03T09:55:14;1.10;;;1.00;;
12519;SDS011;6325;49.540;8.364;2023-04-03T09:57:43;1.60;;;1.10;;
12519;SDS011;6325;49.540;8.364;2023-04-03T10:00:20;1.17;;;1.00;;
12519;SDS011;6325;49.540;8.364;2023-04-03T10:02:50;1.45;;;1.00;;
12519;SDS011;6325;49.540;8.364;2023-04-03T10:05:27;1.17;;;1.00;;
12519;SDS011;6325;49.540;8.364;2023-04-03T10:08:11;1.00;;;0.98;;
12519;SDS011;6325;49.540;8.364;2023-04-03T10:11:05;1.93;;;0.90;;
12519;SDS011;6325;49.540;8.364;2023-04-03T10:13:35;1.35;;;0.95;;
12519;SDS011;6325;49.540;8.364;2023-04-03T10:16:06;1.80;;;0.90;;
12519;SDS011;6325;49.540;8.364;2023-04-03T10:18:37;1.08;;;0.90;;
12519;SDS011;6325;49.540;8.364;2023-04-03T10:21:10;1.00;;;1.00;;
12519;SDS011;6325;49.540;8.364;2023-04-03T10:23:42;1.27;;;1.00;;
12519;SDS011;6325;49.540;8.364;2023-04-03T10:26:15;1.08;;;1.00;;
12519;SDS011;6325;49.540;8.364;2023-04-03T10:28:52;1.58;;;0.93;;
12519;SDS011;6325;49.540;8.364;2023-04-03T10:31:25;0.90;;;0.90;;
12519;SDS011;6325;49.540;8.364;2023-04-03T10:34:01;0.93;;;0.93;;
12519;SDS011;6325;49.540;8.364;2023-04-03T10:36:34;1.27;;;1.00;;
12519;SDS011;6325;49.540;8.364;2023-04-03T10:39:08;1.13;;;0.93;;
12519;SDS011;6325;49.540;8.364;2023-04-03T10:41:46;1.05;;;1.00;;
12519;SDS011;6325;49.540;8.364;2023-04-03T10:44:26;2.70;;;1.13;;
12519;SDS011;6325;49.540;8.364;2023-04-03T10:47:05;1.85;;;1.23;;
12519;SDS011;6325;49.540;8.364;2023-04-03T10:49:41;1.00;;;1.00;;
12519;SDS011;6325;49.540;8.364;2023-04-03T10:52:14;1.50;;;1.00;;
12519;SDS011;6325;49.540;8.364;2023-04-03T10:54:49;1.23;;;1.13;;
12519;SDS011;6325;49.540;8.364;2023-04-03T10:57:26;1.00;;;0.87;;
12519;SDS011;6325;49.540;8.364;2023-04-03T10:59:56;1.08;;;0.90;;
12519;SDS011;6325;49.540;8.364;2023-04-03T11:02:28;1.48;;;0.90;;
12519;SDS011;6325;49.540;8.364;2023-04-03T11:04:59;1.67;;;0.90;;
12519;SDS011;6325;49.540;8.364;2023-04-03T11:07:34;0.88;;;0.88;;
12519;SDS011;6325;49.540;8.364;2023-04-03T11:10:10;1.33;;;0.90;;
12519;SDS011;6325;49.540;8.364;2023-04-03T11:12:42;0.73;;;0.73;;
12519;SDS011;6325;49.540;8.364;2023-04-03T11:15:12;0.90;;;0.87;;
12519;SDS011;6325;49.540;8.364;2023-04-03T11:17:45;1.17;;;0.90;;
12519;SDS011;6325;49.540;8.364;2023-04-03T11:20:17;0.90;;;0.90;;
12519;SDS011;6325;49.540;8.364;2023-04-03T11:22:47;1.10;;;1.00;;
12519;SDS011;6325;49.540;8.364;2023-04-03T11:25:18;1.00;;;0.83;;
12519;SDS011;6325;49.540;8.364;2023-04-03T11:27:49;0.90;;;0.90;;
12519;SDS011;6325;49.540;8.364;2023-04-03T11:30:22;0.73;;;0.73;;
12519;SDS011;6325;49.540;8.364;2023-04-03T11:32:59;1.27;;;0.93;;
12519;SDS011;6325;49.540;8.364;2023-04-03T11:35:42;0.80;;;0.80;;
12519;SDS011;6325;49.540;8.364;2023-04-03T11:38:14;0.90;;;0.90;;
12519;SDS011;6325;49.540;8.364;2023-04-03T11:40:47;1.33;;;0.90;;
12519;SDS011;6325;49.540;8.364;2023-04-03T11:43:20;0.80;;;0.80;;
12519;SDS011;6325;49.540;8.364;2023-04-03T11:45:51;1.20;;;0.93;;
12519;SDS011;6325;49.540;8.364;2023-04-03T11:54:42;1.10;;;1.00;;
12519;SDS011;6325;49.540;8.364;2023-04-03T12:09:26;1.00;;;0.82;;
12519;SDS011;6325;49.540;8.364;2023-04-03T12:11:56;0.90;;;0.90;;
12519;SDS011;6325;49.540;8.364;2023-04-03T12:14:24;1.00;;;1.00;;
12519;SDS011;6325;49.540;8.364;2023-04-03T12:16:53;1.48;;;0.90;;
12519;SDS011;6325;49.540;8.364;2023-04-03T12:22:11;1.10;;;1.00;;
12519;SDS011;6325;49.540;8.364;2023-04-03T12:24:46;1.30;;;1.00;;
12519;SDS011;6325;49.540;8.364;2023-04-03T12:30:05;1.00;;;1.00;;
12519;SDS011;6325;49.540;8.364;2023-04-03T12:32:48;1.25;;;0.90;;
12519;SDS011;6325;49.540;8.364;2023-04-03T12:35:39;0.90;;;0.90;;
12519;SDS011;6325;49.540;8.364;2023-04-03T12:38:19;1.00;;;1.00;;
12519;SDS011;6325;49.540;8.364;2023-04-03T12:41:17;0.90;;;0.90;;
12519;SDS011;6325;49.540;8.364;2023-04-03T12:43:56;1.30;;;1.00;;
12519;SDS011;6325;49.540;8.364;2023-04-03T12:46:33;1.02;;;0.80;;
12519;SDS011;6325;49.540;8.364;2023-04-03T12:49:05;1.17;;;0.95;;
12519;SDS011;6325;49.540;8.364;2023-04-03T12:51:44;0.80;;;0.80;;
12519;SDS011;6325;49.540;8.364;2023-04-03T12:54:13;0.98;;;0.95;;
12519;SDS011;6325;49.540;8.364;2023-04-03T12:56:43;0.90;;;0.90;;
12519;SDS011;6325;49.540;8.364;2023-04-03T12:59:14;1.23;;;0.93;;
12519;SDS011;6325;49.540;8.364;2023-04-03T13:01:43;1.08;;;0.93;;
12519;SDS011;6325;49.540;8.364;2023-04-03T13:04:10;1.30;;;1.05;;
12519;SDS011;6325;49.540;8.364;2023-04-03T13:06:39;0.82;;;0.80;;
12519;SDS011;6325;49.540;8.364;2023-04-03T13:09:16;1.27;;;1.08;;
12519;SDS011;6325;49.540;8.364;2023-04-03T13:11:49;1.60;;;0.93;;
12519;SDS011;6325;49.540;8.364;2023-04-03T13:14:18;1.00;;;0.90;;
12519;SDS011;6325;49.540;8.364;2023-04-03T13:16:53;1.10;;;1.00;;
12519;SDS011;6325;49.540;8.364;2023-04-03T13:19:22;1.08;;;1.00;;
12519;SDS011;6325;49.540;8.364;2023-04-03T13:21:50;1.63;;;0.90;;
12519;SDS011;6325;49.540;8.364;2023-04-03T13:24:22;1.90;;;1.00;;
12519;SDS011;6325;49.540;8.364;2023-04-03T13:26:51;1.75;;;1.05;;
12519;SDS011;6325;49.540;8.364;2023-04-03T13:29:21;1.35;;;0.90;;
12519;SDS011;6325;49.540;8.364;2023-04-03T13:31:52;0.93;;;0.80;;
12519;SDS011;6325;49.540;8.364;2023-04-03T13:34:20;1.30;;;1.00;;
12519;SDS011;6325;49.540;8.364;2023-04-03T13:36:55;2.03;;;1.00;;
12519;SDS011;6325;49.540;8.364;2023-04-03T13:39:24;0.82;;;0.82;;
12519;SDS011;6325;49.540;8.364;2023-04-03T13:41:54;1.15;;;1.00;;
12519;SDS011;6325;49.540;8.364;2023-04-03T13:44:27;0.98;;;0.90;;
12519;SDS011;6325;49.540;8.364;2023-04-03T13:46:56;1.20;;;1.10;;
12519;SDS011;6325;49.540;8.364;2023-04-03T13:49:28;1.27;;;0.98;;
12519;SDS011;6325;49.540;8.364;2023-04-03T13:51:58;1.37;;;1.00;;
12519;SDS011;6325;49.540;8.364;2023-04-03T13:54:25;1.10;;;1.00;;
12519;SDS011;6325;49.540;8.364;2023-04-03T13:56:58;0.93;;;0.93;;
12519;SDS011;6325;49.540;8.364;2023-04-03T13:59:27;1.25;;;1.00;;
12519;SDS011;6325;49.540;8.364;2023-04-03T14:02:09;1.13;;;1.00;;
12519;SDS011;6325;49.540;8.364;2023-04-03T14:04:47;1.00;;;1.00;;
12519;SDS011;6325;49.540;8.364;2023-04-03T14:07:18;0.90;;;0.90;;
12519;SDS011;6325;49.540;8.364;2023-04-03T14:09:46;1.35;;;0.90;;
12519;SDS011;6325;49.540;8.364;2023-04-03T14:12:17;0.98;;;0.90;;
12519;SDS011;6325;49.540;8.364;2023-04-03T14:14:51;0.90;;;0.90;;
12519;SDS011;6325;49.540;8.364;2023-04-03T14:17:19;1.00;;;0.90;;
12519;SDS011;6325;49.540;8.364;2023-04-03T14:19:49;1.35;;;0.82;;
12519;SDS011;6325;49.540;8.364;2023-04-03T14:22:18;0.95;;;0.95;;
12519;SDS011;6325;49.540;8.364;2023-04-03T14:24:48;1.02;;;0.98;;
12519;SDS011;6325;49.540;8.364;2023-04-03T14:27:19;0.90;;;0.90;;
12519;SDS011;6325;49.540;8.364;2023-04-03T14:29:48;1.40;;;0.90;;
12519;SDS011;6325;49.540;8.364;2023-04-03T14:32:17;1.00;;;1.00;;
12519;SDS011;6325;49.540;8.364;2023-04-03T14:34:46;0.85;;;0.85;;
12519;SDS011;6325;49.540;8.364;2023-04-03T14:37:15;1.13;;;1.02;;
12519;SDS011;6325;49.540;8.364;2023-04-03T14:39:43;1.00;;;1.00;;
12519;SDS011;6325;49.540;8.364;2023-04-03T14:42:12;1.63;;;1.00;;
12519;SDS011;6325;49.540;8.364;2023-04-03T14:44:43;1.15;;;1.05;;
12519;SDS011;6325;49.540;8.364;2023-04-03T14:47:11;1.20;;;1.10;;
12519;SDS011;6325;49.540;8.364;2023-04-03T14:49:40;1.10;;;1.00;;
12519;SDS011;6325;49.540;8.364;2023-04-03T14:52:11;1.02;;;1.00;;
12519;SDS011;6325;49.540;8.364;2023-04-03T14:54:44;0.90;;;0.90;;
12519;SDS011;6325;49.540;8.364;2023-04-03T14:57:11;1.10;;;1.00;;
12519;SDS011;6325;49.540;8.364;2023-04-03T14:59:40;1.10;;;1.00;;
12519;SDS011;6325;49.540;8.364;2023-04-03T15:02:12;1.42;;;1.00;;
12519;SDS011;6325;49.540;8.364;2023-04-03T15:04:56;0.85;;;0.85;;
12519;SDS011;6325;49.540;8.364;2023-04-03T15:07:24;1.00;;;0.90;;
12519;SDS011;6325;49.540;8.364;2023-04-03T15:09:53;1.00;;;1.00;;
12519;SDS011;6325;49.540;8.364;2023-04-03T15:12:21;0.90;;;0.90;;
12519;SDS011;6325;49.540;8.364;2023-04-03T15:14:48;0.90;;;0.90;;
12519;SDS011;6325;49.540;8.364;2023-04-03T15:17:17;0.93;;;0.90;;
12519;SDS011;6325;49.540;8.364;2023-04-03T15:19:47;1.05;;;1.00;;
12519;SDS011;6325;49.540;8.364;2023-04-03T15:22:15;1.98;;;1.17;;
12519;SDS011;6325;49.540;8.364;2023-04-03T15:24:44;0.90;;;0.90;;
12519;SDS011;6325;49.540;8.364;2023-04-03T15:27:11;1.15;;;1.13;;
12519;SDS011;6325;49.540;8.364;2023-04-03T15:29:40;0.90;;;0.90;;
12519;SDS011;6325;49.540;8.364;2023-04-03T15:32:08;1.00;;;0.90;;
12519;SDS011;6325;49.540;8.364;2023-04-03T15:34:39;1.00;;;0.88;;
12519;SDS011;6325;49.540;8.364;2023-04-03T15:37:06;0.90;;;0.90;;
12519;SDS011;6325;49.540;8.364;2023-04-03T15:39:33;0.90;;;0.90;;
12519;SDS011;6325;49.540;8.364;2023-04-03T15:42:00;1.00;;;1.00;;